KTRI/TRI METAR and TAF weather

Enter ICAO airport designator
Station Type Date Time Source
KTRI METAR 2019/06/26 15:53 UTC NOAA

KTRI 261553Z 00000KT 10SM FEW035 FEW150 SCT250 27/18 A3024 RMK AO2 SLP217 T02670178


Station Type Date Time Source
KTRI Decoded METAR 2019/06/26 15:53 UTC NOAA

TRI-CITY REGIONAL AIRPORT, TN, United States (KTRI) 36-28N 082-24W 474M
Jun 26, 2019 - 11:53 AM EDT / 2019.06.26 1553 UTC
Wind: Calm:0
Visibility: 10 mile(s):0
Sky conditions: partly cloudy
Temperature: 80.1 F (26.7 C)
Dew Point: 64.0 F (17.8 C)
Relative Humidity: 58%
Pressure (altimeter): 30.24 in. Hg (1024 hPa)
ob: KTRI 261553Z 00000KT 10SM FEW035 FEW150 SCT250 27/18 A3024 RMK AO2 SLP217 T02670178
cycle: 16

Station Type Date Time Source
KTRI TAF 2019/06/26 12:36 UTC NOAA

TAF KTRI 261127Z 2612/2712 VRB04KT P6SM BKN250
FM270000 00000KT P6SM SCT250

Example: see airport list